This is the latest recevied weather packets stored in our database for station/object CE4ERM-13. If no packets are shown the sender has not sent any weather packets the latest 10 day(s).
| Time | Temp. | Humidity | Pressure | Rain* | Wind** | Luminosity | Snow |
|---|---|---|---|---|---|---|---|
| 1777492661 | 27.22° C | 33% | 1011.5 hPa | - | - | - | - |
| 1777491460 | 26.67° C | 33% | 1011.6 hPa | - | - | - | - |
| 1777490859 | 26.67° C | 33% | 1015.2 hPa | - | - | - | - |
| 1777490658 | 35° C | 22% | 1012.4 hPa | - | - | - | - |
| 1777489658 | 26.11° C | 35% | 1014.7 hPa | - | - | - | - |
| 1777489457 | 33.89° C | 24% | 1014 hPa | - | - | - | - |
| 1777489058 | 26.11° C | 37% | 1017 hPa | - | - | - | - |
| 1777488856 | 34.44° C | 24% | 1012.3 hPa | - | - | - | - |
| 1777488255 | 33.89° C | 25% | 1012.7 hPa | - | - | - | - |
| 1777487857 | 25.56° C | 37% | 1014.9 hPa | - | - | - | - |
| 1777487257 | 25.56° C | 37% | 1013.5 hPa | - | - | - | - |
| 1777487054 | 33.89° C | 23% | 1012.9 hPa | - | - | - | - |
| 1777486455 | 34.44° C | 24% | 1013.7 hPa | - | - | - | - |
| 1777486056 | 26.11° C | 36% | 1014.9 hPa | - | - | - | - |
| 1777485854 | 34.44° C | 24% | 1013.1 hPa | - | - | - | - |
| 1777485456 | 25.56° C | 37% | 1013 hPa | - | - | - | - |
| 1777485253 | 32.78° C | 25% | 1014.5 hPa | - | - | - | - |
| 1777484653 | 34.44° C | 23% | 1014 hPa | - | - | - | - |
| 1777484255 | 25.56° C | 38% | 1015.8 hPa | - | - | - | - |
| 1777484052 | 34.44° C | 23% | 1014.3 hPa | - | - | - | - |
| 1777483655 | 25° C | 39% | 1015.5 hPa | - | - | - | - |
| 1777483451 | 34.44° C | 24% | 1015.1 hPa | - | - | - | - |
| 1777483055 | 25° C | 39% | 1019.2 hPa | - | - | - | - |
| 1777482850 | 33.33° C | 25% | 1014.5 hPa | - | - | - | - |
| 1777481853 | 24.44° C | 39% | 1016.8 hPa | - | - | - | - |
* Rain since midnight (hover to see other rain measurements)
** Current wind speed in m/s (hover to see current wind gust speed)